sensor_id;sensor_type;location;lat;lon;timestamp;temperature;humidity
53599;DHT22;39485;45.702;11.364;2022-10-04T00:04:41;16.00;99.90
53599;DHT22;39485;45.702;11.364;2022-10-04T00:09:56;16.00;99.90
53599;DHT22;39485;45.702;11.364;2022-10-04T00:12:23;16.00;99.90
53599;DHT22;39485;45.702;11.364;2022-10-04T00:14:51;16.00;99.90
53599;DHT22;39485;45.702;11.364;2022-10-04T00:17:19;15.90;99.90
53599;DHT22;39485;45.702;11.364;2022-10-04T00:19:47;16.00;99.90
53599;DHT22;39485;45.702;11.364;2022-10-04T00:22:34;15.90;99.90
53599;DHT22;39485;45.702;11.364;2022-10-04T00:27:38;16.00;99.90
53599;DHT22;39485;45.702;11.364;2022-10-04T00:35:14;15.90;99.90
53599;DHT22;39485;45.702;11.364;2022-10-04T00:37:56;16.00;99.90
53599;DHT22;39485;45.702;11.364;2022-10-04T00:40:22;16.00;99.90
53599;DHT22;39485;45.702;11.364;2022-10-04T00:43:06;16.00;99.90
53599;DHT22;39485;45.702;11.364;2022-10-04T00:45:33;16.00;99.90
53599;DHT22;39485;45.702;11.364;2022-10-04T00:52:58;16.00;99.90
53599;DHT22;39485;45.702;11.364;2022-10-04T00:55:38;16.00;99.90
53599;DHT22;39485;45.702;11.364;2022-10-04T00:58:06;16.00;99.90
53599;DHT22;39485;45.702;11.364;2022-10-04T01:00:36;16.00;99.90
53599;DHT22;39485;45.702;11.364;2022-10-04T01:03:04;16.00;99.90
53599;DHT22;39485;45.702;11.364;2022-10-04T01:05:39;15.90;99.90
53599;DHT22;39485;45.702;11.364;2022-10-04T01:08:09;16.00;99.90
53599;DHT22;39485;45.702;11.364;2022-10-04T01:10:45;15.90;99.90
53599;DHT22;39485;45.702;11.364;2022-10-04T01:15:47;15.90;99.90
53599;DHT22;39485;45.702;11.364;2022-10-04T01:25:58;15.80;99.90
53599;DHT22;39485;45.702;11.364;2022-10-04T01:28:24;15.80;99.90
53599;DHT22;39485;45.702;11.364;2022-10-04T01:30:51;15.80;99.90
53599;DHT22;39485;45.702;11.364;2022-10-04T01:33:17;15.90;99.90
53599;DHT22;39485;45.702;11.364;2022-10-04T01:35:42;15.80;99.90
53599;DHT22;39485;45.702;11.364;2022-10-04T01:38:09;15.80;99.90
53599;DHT22;39485;45.702;11.364;2022-10-04T01:40:37;15.80;99.90
53599;DHT22;39485;45.702;11.364;2022-10-04T01:43:05;15.80;99.90
53599;DHT22;39485;45.702;11.364;2022-10-04T01:45:39;15.80;99.90
53599;DHT22;39485;45.702;11.364;2022-10-04T01:48:12;15.80;99.90
53599;DHT22;39485;45.702;11.364;2022-10-04T01:50:43;15.80;99.90
53599;DHT22;39485;45.702;11.364;2022-10-04T01:53:14;15.80;99.90
53599;DHT22;39485;45.702;11.364;2022-10-04T01:55:43;15.70;99.90
53599;DHT22;39485;45.702;11.364;2022-10-04T01:58:11;15.80;99.90
53599;DHT22;39485;45.702;11.364;2022-10-04T02:00:39;15.80;99.90
53599;DHT22;39485;45.702;11.364;2022-10-04T02:03:09;15.80;99.90
53599;DHT22;39485;45.702;11.364;2022-10-04T02:05:37;15.80;99.90
53599;DHT22;39485;45.702;11.364;2022-10-04T02:08:07;15.80;99.90
53599;DHT22;39485;45.702;11.364;2022-10-04T02:10:33;15.80;99.90
53599;DHT22;39485;45.702;11.364;2022-10-04T02:13:01;15.80;99.90
53599;DHT22;39485;45.702;11.364;2022-10-04T02:15:27;15.90;99.90
53599;DHT22;39485;45.702;11.364;2022-10-04T02:17:53;15.90;99.90
53599;DHT22;39485;45.702;11.364;2022-10-04T02:20:20;15.80;99.90
53599;DHT22;39485;45.702;11.364;2022-10-04T02:22:52;15.80;99.90
53599;DHT22;39485;45.702;11.364;2022-10-04T02:25:20;15.80;99.90
53599;DHT22;39485;45.702;11.364;2022-10-04T02:27:46;15.70;99.90
53599;DHT22;39485;45.702;11.364;2022-10-04T02:30:12;15.70;99.90
53599;DHT22;39485;45.702;11.364;2022-10-04T02:32:38;15.60;99.90
53599;DHT22;39485;45.702;11.364;2022-10-04T02:40:36;15.40;99.90
53599;DHT22;39485;45.702;11.364;2022-10-04T02:43:11;15.30;99.90
53599;DHT22;39485;45.702;11.364;2022-10-04T02:45:45;15.30;99.90
53599;DHT22;39485;45.702;11.364;2022-10-04T02:50:47;15.30;99.90
53599;DHT22;39485;45.702;11.364;2022-10-04T02:53:18;15.30;99.90
53599;DHT22;39485;45.702;11.364;2022-10-04T02:55:46;15.30;99.90
53599;DHT22;39485;45.702;11.364;2022-10-04T02:58:13;15.30;99.90
53599;DHT22;39485;45.702;11.364;2022-10-04T03:00:47;15.30;99.90
53599;DHT22;39485;45.702;11.364;2022-10-04T03:03:15;15.30;99.90
53599;DHT22;39485;45.702;11.364;2022-10-04T03:05:44;15.30;99.90
53599;DHT22;39485;45.702;11.364;2022-10-04T03:08:11;15.30;99.90
53599;DHT22;39485;45.702;11.364;2022-10-04T03:10:37;15.30;99.90
53599;DHT22;39485;45.702;11.364;2022-10-04T03:13:03;15.30;99.90
53599;DHT22;39485;45.702;11.364;2022-10-04T03:15:29;15.20;99.90
53599;DHT22;39485;45.702;11.364;2022-10-04T03:17:55;15.20;99.90
53599;DHT22;39485;45.702;11.364;2022-10-04T03:20:21;15.20;99.90
53599;DHT22;39485;45.702;11.364;2022-10-04T03:22:51;15.30;99.90
53599;DHT22;39485;45.702;11.364;2022-10-04T03:25:19;15.30;99.90
53599;DHT22;39485;45.702;11.364;2022-10-04T03:27:46;15.30;99.90
53599;DHT22;39485;45.702;11.364;2022-10-04T03:30:12;15.30;99.90
53599;DHT22;39485;45.702;11.364;2022-10-04T03:32:38;15.30;99.90
53599;DHT22;39485;45.702;11.364;2022-10-04T03:35:05;15.40;99.90
53599;DHT22;39485;45.702;11.364;2022-10-04T03:37:33;15.40;99.90
53599;DHT22;39485;45.702;11.364;2022-10-04T03:39:59;15.50;99.90
53599;DHT22;39485;45.702;11.364;2022-10-04T03:42:27;15.50;99.90
53599;DHT22;39485;45.702;11.364;2022-10-04T03:44:53;15.50;99.90
53599;DHT22;39485;45.702;11.364;2022-10-04T03:47:23;15.50;99.90
53599;DHT22;39485;45.702;11.364;2022-10-04T03:49:49;15.50;99.90
53599;DHT22;39485;45.702;11.364;2022-10-04T03:52:30;15.50;99.90
53599;DHT22;39485;45.702;11.364;2022-10-04T03:54:56;15.50;99.90
53599;DHT22;39485;45.702;11.364;2022-10-04T03:57:23;15.50;99.90
53599;DHT22;39485;45.702;11.364;2022-10-04T03:59:49;15.50;99.90
53599;DHT22;39485;45.702;11.364;2022-10-04T04:02:17;15.50;99.90
53599;DHT22;39485;45.702;11.364;2022-10-04T04:04:57;15.50;99.90
53599;DHT22;39485;45.702;11.364;2022-10-04T04:07:28;15.50;99.90
53599;DHT22;39485;45.702;11.364;2022-10-04T04:10:00;15.40;99.90
53599;DHT22;39485;45.702;11.364;2022-10-04T04:12:34;15.50;99.90
53599;DHT22;39485;45.702;11.364;2022-10-04T04:15:02;15.50;99.90
53599;DHT22;39485;45.702;11.364;2022-10-04T04:19:58;15.50;99.90
53599;DHT22;39485;45.702;11.364;2022-10-04T04:22:25;15.50;99.90
53599;DHT22;39485;45.702;11.364;2022-10-04T04:24:59;15.50;99.90
53599;DHT22;39485;45.702;11.364;2022-10-04T04:27:25;15.50;99.90
53599;DHT22;39485;45.702;11.364;2022-10-04T04:29:51;15.50;99.90
53599;DHT22;39485;45.702;11.364;2022-10-04T04:32:22;15.50;99.90
53599;DHT22;39485;45.702;11.364;2022-10-04T04:37:14;15.50;99.90
53599;DHT22;39485;45.702;11.364;2022-10-04T04:39:40;15.40;99.90
53599;DHT22;39485;45.702;11.364;2022-10-04T04:42:11;15.40;99.90
53599;DHT22;39485;45.702;11.364;2022-10-04T04:44:39;15.40;99.90
53599;DHT22;39485;45.702;11.364;2022-10-04T04:47:11;15.40;99.90
53599;DHT22;39485;45.702;11.364;2022-10-04T04:49:38;15.40;99.90
53599;DHT22;39485;45.702;11.364;2022-10-04T04:52:04;15.50;99.90
53599;DHT22;39485;45.702;11.364;2022-10-04T04:54:30;15.40;99.90
53599;DHT22;39485;45.702;11.364;2022-10-04T04:56:56;15.50;99.90
53599;DHT22;39485;45.702;11.364;2022-10-04T04:59:23;15.40;99.90
53599;DHT22;39485;45.702;11.364;2022-10-04T05:01:49;15.40;99.90
53599;DHT22;39485;45.702;11.364;2022-10-04T05:04:19;15.40;99.90
53599;DHT22;39485;45.702;11.364;2022-10-04T05:07:15;15.40;99.90
53599;DHT22;39485;45.702;11.364;2022-10-04T05:09:35;15.40;99.90
53599;DHT22;39485;45.702;11.364;2022-10-04T05:12:13;15.40;99.90
53599;DHT22;39485;45.702;11.364;2022-10-04T05:14:44;15.40;99.90
53599;DHT22;39485;45.702;11.364;2022-10-04T05:17:43;15.40;99.90
53599;DHT22;39485;45.702;11.364;2022-10-04T05:20:02;15.40;99.90
53599;DHT22;39485;45.702;11.364;2022-10-04T05:22:29;15.40;99.90
53599;DHT22;39485;45.702;11.364;2022-10-04T05:24:57;15.40;99.90
53599;DHT22;39485;45.702;11.364;2022-10-04T05:30:00;15.50;99.90
53599;DHT22;39485;45.702;11.364;2022-10-04T05:32:29;15.50;99.90
53599;DHT22;39485;45.702;11.364;2022-10-04T05:34:58;15.50;99.90
53599;DHT22;39485;45.702;11.364;2022-10-04T05:42:44;15.60;99.90
53599;DHT22;39485;45.702;11.364;2022-10-04T05:45:15;15.60;99.90
53599;DHT22;39485;45.702;11.364;2022-10-04T05:47:41;15.60;99.90
53599;DHT22;39485;45.702;11.364;2022-10-04T05:50:18;15.60;99.90
53599;DHT22;39485;45.702;11.364;2022-10-04T05:52:46;15.60;99.90
53599;DHT22;39485;45.702;11.364;2022-10-04T06:00:09;15.70;99.90
53599;DHT22;39485;45.702;11.364;2022-10-04T06:10:48;15.70;99.90
53599;DHT22;39485;45.702;11.364;2022-10-04T06:16:44;15.80;99.90
53599;DHT22;39485;45.702;11.364;2022-10-04T06:21:20;15.80;99.90
53599;DHT22;39485;45.702;11.364;2022-10-04T06:24:09;15.90;99.90
53599;DHT22;39485;45.702;11.364;2022-10-04T06:26:42;15.90;99.90
53599;DHT22;39485;45.702;11.364;2022-10-04T06:29:10;15.90;99.90
53599;DHT22;39485;45.702;11.364;2022-10-04T06:37:09;16.00;99.90
53599;DHT22;39485;45.702;11.364;2022-10-04T07:02:57;16.20;99.90
53599;DHT22;39485;45.702;11.364;2022-10-04T07:05:04;16.10;99.90
53599;DHT22;39485;45.702;11.364;2022-10-04T07:07:37;16.20;99.90
53599;DHT22;39485;45.702;11.364;2022-10-04T07:12:41;16.20;99.90
53599;DHT22;39485;45.702;11.364;2022-10-04T07:15:15;16.20;99.90
53599;DHT22;39485;45.702;11.364;2022-10-04T07:17:42;16.20;99.90
53599;DHT22;39485;45.702;11.364;2022-10-04T07:20:17;16.20;99.90
53599;DHT22;39485;45.702;11.364;2022-10-04T07:22:44;16.20;99.90
53599;DHT22;39485;45.702;11.364;2022-10-04T07:25:12;16.20;99.90
53599;DHT22;39485;45.702;11.364;2022-10-04T07:28:00;16.20;99.90
53599;DHT22;39485;45.702;11.364;2022-10-04T07:33:52;16.30;99.90
53599;DHT22;39485;45.702;11.364;2022-10-04T07:36:18;16.40;99.90
53599;DHT22;39485;45.702;11.364;2022-10-04T07:38:55;16.50;99.90
53599;DHT22;39485;45.702;11.364;2022-10-04T07:41:36;16.60;99.90
53599;DHT22;39485;45.702;11.364;2022-10-04T07:46:51;16.90;99.90
53599;DHT22;39485;45.702;11.364;2022-10-04T07:49:18;17.00;99.90
53599;DHT22;39485;45.702;11.364;2022-10-04T07:51:53;17.20;99.90
53599;DHT22;39485;45.702;11.364;2022-10-04T07:54:33;17.30;99.90
53599;DHT22;39485;45.702;11.364;2022-10-04T07:57:07;17.40;99.90
53599;DHT22;39485;45.702;11.364;2022-10-04T08:02:12;17.60;99.90
53599;DHT22;39485;45.702;11.364;2022-10-04T08:07:17;17.80;99.90
53599;DHT22;39485;45.702;11.364;2022-10-04T08:09:54;17.90;99.90
53599;DHT22;39485;45.702;11.364;2022-10-04T08:13:04;18.00;99.90
53599;DHT22;39485;45.702;11.364;2022-10-04T08:17:49;18.20;99.90
53599;DHT22;39485;45.702;11.364;2022-10-04T08:22:53;18.40;99.90
53599;DHT22;39485;45.702;11.364;2022-10-04T08:51:37;18.60;99.90
53599;DHT22;39485;45.702;11.364;2022-10-04T09:12:08;18.60;99.90
53599;DHT22;39485;45.702;11.364;2022-10-04T09:19:55;18.70;99.90
53599;DHT22;39485;45.702;11.364;2022-10-04T09:22:44;18.70;99.90
53599;DHT22;39485;45.702;11.364;2022-10-04T09:25:22;18.80;99.90
53599;DHT22;39485;45.702;11.364;2022-10-04T09:28:14;18.80;99.90
53599;DHT22;39485;45.702;11.364;2022-10-04T09:30:52;18.80;99.90
53599;DHT22;39485;45.702;11.364;2022-10-04T10:13:02;19.20;99.90
53599;DHT22;39485;45.702;11.364;2022-10-04T10:16:36;19.20;99.90
53599;DHT22;39485;45.702;11.364;2022-10-04T10:18:41;19.20;99.90
53599;DHT22;39485;45.702;11.364;2022-10-04T10:37:01;19.30;99.90
53599;DHT22;39485;45.702;11.364;2022-10-04T10:43:04;19.30;99.90
53599;DHT22;39485;45.702;11.364;2022-10-04T10:47:34;19.50;99.90
53599;DHT22;39485;45.702;11.364;2022-10-04T11:00:58;19.60;99.90
53599;DHT22;39485;45.702;11.364;2022-10-04T11:06:22;19.60;99.90
53599;DHT22;39485;45.702;11.364;2022-10-04T11:16:34;19.70;99.90
53599;DHT22;39485;45.702;11.364;2022-10-04T11:22:34;19.70;99.90
53599;DHT22;39485;45.702;11.364;2022-10-04T11:24:52;19.70;99.90
53599;DHT22;39485;45.702;11.364;2022-10-04T11:27:29;19.70;99.90
53599;DHT22;39485;45.702;11.364;2022-10-04T11:59:00;19.80;99.90
53599;DHT22;39485;45.702;11.364;2022-10-04T12:22:50;19.60;99.90
53599;DHT22;39485;45.702;11.364;2022-10-04T12:35:57;19.60;99.90
53599;DHT22;39485;45.702;11.364;2022-10-04T12:41:29;19.60;99.90
53599;DHT22;39485;45.702;11.364;2022-10-04T12:54:18;19.60;99.90
53599;DHT22;39485;45.702;11.364;2022-10-04T12:59:38;19.60;99.90
53599;DHT22;39485;45.702;11.364;2022-10-04T13:04:54;19.60;99.90
53599;DHT22;39485;45.702;11.364;2022-10-04T13:17:37;19.50;99.90
53599;DHT22;39485;45.702;11.364;2022-10-04T13:22:32;19.40;99.90
53599;DHT22;39485;45.702;11.364;2022-10-04T13:27:38;19.40;99.90
53599;DHT22;39485;45.702;11.364;2022-10-04T13:30:18;19.40;99.90
53599;DHT22;39485;45.702;11.364;2022-10-04T13:40:24;19.40;99.90
53599;DHT22;39485;45.702;11.364;2022-10-04T13:42:59;19.40;99.90
53599;DHT22;39485;45.702;11.364;2022-10-04T13:45:35;19.40;99.90
53599;DHT22;39485;45.702;11.364;2022-10-04T13:52:59;19.40;99.90
53599;DHT22;39485;45.702;11.364;2022-10-04T13:56:12;19.50;99.90
53599;DHT22;39485;45.702;11.364;2022-10-04T13:58:52;19.50;99.90
53599;DHT22;39485;45.702;11.364;2022-10-04T14:24:55;19.60;99.90
53599;DHT22;39485;45.702;11.364;2022-10-04T14:40:44;19.60;99.90
53599;DHT22;39485;45.702;11.364;2022-10-04T14:48:35;19.50;99.90
53599;DHT22;39485;45.702;11.364;2022-10-04T14:53:46;19.50;99.90
53599;DHT22;39485;45.702;11.364;2022-10-04T14:58:52;19.50;99.90
53599;DHT22;39485;45.702;11.364;2022-10-04T15:01:23;19.50;99.90
53599;DHT22;39485;45.702;11.364;2022-10-04T15:08:59;19.50;99.90
53599;DHT22;39485;45.702;11.364;2022-10-04T15:14:03;19.50;99.90
53599;DHT22;39485;45.702;11.364;2022-10-04T15:19:03;19.50;99.90
53599;DHT22;39485;45.702;11.364;2022-10-04T15:21:34;19.50;99.90
53599;DHT22;39485;45.702;11.364;2022-10-04T16:14:31;18.70;99.90
53599;DHT22;39485;45.702;11.364;2022-10-04T16:17:01;18.70;99.90
53599;DHT22;39485;45.702;11.364;2022-10-04T16:22:10;18.70;99.90
53599;DHT22;39485;45.702;11.364;2022-10-04T16:24:46;18.60;99.90
53599;DHT22;39485;45.702;11.364;2022-10-04T16:29:56;18.60;99.90
53599;DHT22;39485;45.702;11.364;2022-10-04T16:32:28;18.50;99.90
53599;DHT22;39485;45.702;11.364;2022-10-04T16:34:55;18.40;99.90
53599;DHT22;39485;45.702;11.364;2022-10-04T16:39:53;18.40;99.90
53599;DHT22;39485;45.702;11.364;2022-10-04T16:42:32;18.30;99.90
53599;DHT22;39485;45.702;11.364;2022-10-04T16:50:01;18.20;99.90
53599;DHT22;39485;45.702;11.364;2022-10-04T17:00:46;17.90;99.90
53599;DHT22;39485;45.702;11.364;2022-10-04T17:03:17;17.90;99.90
53599;DHT22;39485;45.702;11.364;2022-10-04T17:06:28;17.80;99.90
53599;DHT22;39485;45.702;11.364;2022-10-04T17:08:47;17.80;99.90
53599;DHT22;39485;45.702;11.364;2022-10-04T17:13:57;17.70;99.90
53599;DHT22;39485;45.702;11.364;2022-10-04T17:29:42;17.20;99.90
53599;DHT22;39485;45.702;11.364;2022-10-04T17:32:16;17.20;99.90
53599;DHT22;39485;45.702;11.364;2022-10-04T17:47:52;16.90;99.90
53599;DHT22;39485;45.702;11.364;2022-10-04T17:53:27;16.90;99.90
53599;DHT22;39485;45.702;11.364;2022-10-04T17:56:12;16.90;99.90
53599;DHT22;39485;45.702;11.364;2022-10-04T17:58:50;16.90;99.90
53599;DHT22;39485;45.702;11.364;2022-10-04T18:03:50;16.80;99.90
53599;DHT22;39485;45.702;11.364;2022-10-04T18:06:39;16.90;99.90
53599;DHT22;39485;45.702;11.364;2022-10-04T18:21:55;16.90;99.90
53599;DHT22;39485;45.702;11.364;2022-10-04T18:24:29;16.80;99.90
53599;DHT22;39485;45.702;11.364;2022-10-04T18:26:58;16.90;99.90
53599;DHT22;39485;45.702;11.364;2022-10-04T18:29:35;16.90;99.90
53599;DHT22;39485;45.702;11.364;2022-10-04T18:34:51;16.90;99.90
53599;DHT22;39485;45.702;11.364;2022-10-04T18:37:39;16.90;99.90
53599;DHT22;39485;45.702;11.364;2022-10-04T18:42:35;16.90;99.90
53599;DHT22;39485;45.702;11.364;2022-10-04T18:45:19;16.90;99.90
53599;DHT22;39485;45.702;11.364;2022-10-04T18:47:45;16.90;99.90
53599;DHT22;39485;45.702;11.364;2022-10-04T18:56:05;16.90;99.90
53599;DHT22;39485;45.702;11.364;2022-10-04T19:00:55;17.00;99.90
53599;DHT22;39485;45.702;11.364;2022-10-04T19:03:48;16.90;99.90
53599;DHT22;39485;45.702;11.364;2022-10-04T19:11:08;16.90;99.90
53599;DHT22;39485;45.702;11.364;2022-10-04T19:19:36;17.00;99.90
53599;DHT22;39485;45.702;11.364;2022-10-04T19:21:42;17.00;99.90
53599;DHT22;39485;45.702;11.364;2022-10-04T19:26:51;17.00;99.90
53599;DHT22;39485;45.702;11.364;2022-10-04T19:32:03;17.00;99.90
53599;DHT22;39485;45.702;11.364;2022-10-04T19:37:13;17.00;99.90
53599;DHT22;39485;45.702;11.364;2022-10-04T19:45:23;17.00;99.90
53599;DHT22;39485;45.702;11.364;2022-10-04T19:47:51;17.00;99.90
53599;DHT22;39485;45.702;11.364;2022-10-04T19:57:49;17.00;99.90
53599;DHT22;39485;45.702;11.364;2022-10-04T20:00:15;17.00;99.90
53599;DHT22;39485;45.702;11.364;2022-10-04T20:02:41;17.00;99.90
53599;DHT22;39485;45.702;11.364;2022-10-04T20:05:14;17.00;99.90
53599;DHT22;39485;45.702;11.364;2022-10-04T20:07:40;17.00;99.90
53599;DHT22;39485;45.702;11.364;2022-10-04T20:10:31;17.00;99.90
53599;DHT22;39485;45.702;11.364;2022-10-04T20:17:59;16.90;99.90
53599;DHT22;39485;45.702;11.364;2022-10-04T20:23:03;16.80;99.90
53599;DHT22;39485;45.702;11.364;2022-10-04T20:28:35;16.70;99.90
53599;DHT22;39485;45.702;11.364;2022-10-04T20:31:05;16.70;99.90
53599;DHT22;39485;45.702;11.364;2022-10-04T20:42:09;16.60;99.90
53599;DHT22;39485;45.702;11.364;2022-10-04T20:44:41;16.50;99.90
53599;DHT22;39485;45.702;11.364;2022-10-04T20:49:59;16.40;99.90
53599;DHT22;39485;45.702;11.364;2022-10-04T20:52:27;16.40;99.90
53599;DHT22;39485;45.702;11.364;2022-10-04T20:54:53;16.40;99.90
53599;DHT22;39485;45.702;11.364;2022-10-04T20:57:19;16.30;99.90
53599;DHT22;39485;45.702;11.364;2022-10-04T20:59:51;16.30;99.90
53599;DHT22;39485;45.702;11.364;2022-10-04T21:02:21;16.20;99.90
53599;DHT22;39485;45.702;11.364;2022-10-04T21:04:48;16.30;99.90
53599;DHT22;39485;45.702;11.364;2022-10-04T21:07:21;16.20;99.90
53599;DHT22;39485;45.702;11.364;2022-10-04T21:09:47;16.20;99.90
53599;DHT22;39485;45.702;11.364;2022-10-04T21:15:03;16.20;99.90
53599;DHT22;39485;45.702;11.364;2022-10-04T21:19:55;16.20;99.90
53599;DHT22;39485;45.702;11.364;2022-10-04T21:27:31;16.20;99.90
53599;DHT22;39485;45.702;11.364;2022-10-04T21:29:57;16.20;99.90
53599;DHT22;39485;45.702;11.364;2022-10-04T21:32:23;16.20;99.90
53599;DHT22;39485;45.702;11.364;2022-10-04T21:34:49;16.20;99.90
53599;DHT22;39485;45.702;11.364;2022-10-04T21:37:15;16.20;99.90
53599;DHT22;39485;45.702;11.364;2022-10-04T21:39:40;16.20;99.90
53599;DHT22;39485;45.702;11.364;2022-10-04T21:42:06;16.20;99.90
53599;DHT22;39485;45.702;11.364;2022-10-04T21:44:31;16.20;99.90
53599;DHT22;39485;45.702;11.364;2022-10-04T21:46:57;16.20;99.90
53599;DHT22;39485;45.702;11.364;2022-10-04T21:49:22;16.20;99.90
53599;DHT22;39485;45.702;11.364;2022-10-04T21:51:48;16.10;99.90
53599;DHT22;39485;45.702;11.364;2022-10-04T21:54:14;16.10;99.90
53599;DHT22;39485;45.702;11.364;2022-10-04T21:56:39;16.10;99.90
53599;DHT22;39485;45.702;11.364;2022-10-04T21:59:05;16.10;99.90
53599;DHT22;39485;45.702;11.364;2022-10-04T22:01:30;16.10;99.90
53599;DHT22;39485;45.702;11.364;2022-10-04T22:03:56;16.10;99.90
53599;DHT22;39485;45.702;11.364;2022-10-04T22:06:21;16.10;99.90
53599;DHT22;39485;45.702;11.364;2022-10-04T22:08:47;16.10;99.90
53599;DHT22;39485;45.702;11.364;2022-10-04T22:11:12;16.20;99.90
53599;DHT22;39485;45.702;11.364;2022-10-04T22:13:38;16.20;99.90
53599;DHT22;39485;45.702;11.364;2022-10-04T22:16:04;16.20;99.90
53599;DHT22;39485;45.702;11.364;2022-10-04T22:18:30;16.20;99.90
53599;DHT22;39485;45.702;11.364;2022-10-04T22:20:56;16.20;99.90
53599;DHT22;39485;45.702;11.364;2022-10-04T22:23:23;16.20;99.90
53599;DHT22;39485;45.702;11.364;2022-10-04T22:25:49;16.20;99.90
53599;DHT22;39485;45.702;11.364;2022-10-04T22:28:22;16.30;99.90
53599;DHT22;39485;45.702;11.364;2022-10-04T22:30:48;16.30;99.90
53599;DHT22;39485;45.702;11.364;2022-10-04T22:35:54;16.30;99.90
53599;DHT22;39485;45.702;11.364;2022-10-04T22:38:20;16.30;99.90
53599;DHT22;39485;45.702;11.364;2022-10-04T22:40:46;16.30;99.90
53599;DHT22;39485;45.702;11.364;2022-10-04T22:43:11;16.40;99.90
53599;DHT22;39485;45.702;11.364;2022-10-04T22:45:38;16.40;99.90
53599;DHT22;39485;45.702;11.364;2022-10-04T22:48:08;16.40;99.90
53599;DHT22;39485;45.702;11.364;2022-10-04T22:50:35;16.40;99.90
53599;DHT22;39485;45.702;11.364;2022-10-04T22:53:11;16.40;99.90
53599;DHT22;39485;45.702;11.364;2022-10-04T22:55:38;16.40;99.90
53599;DHT22;39485;45.702;11.364;2022-10-04T22:58:03;16.40;99.90
53599;DHT22;39485;45.702;11.364;2022-10-04T23:00:29;16.40;99.90
53599;DHT22;39485;45.702;11.364;2022-10-04T23:02:55;16.40;99.90
53599;DHT22;39485;45.702;11.364;2022-10-04T23:05:20;16.40;99.90
53599;DHT22;39485;45.702;11.364;2022-10-04T23:07:47;16.40;99.90
53599;DHT22;39485;45.702;11.364;2022-10-04T23:10:13;16.40;99.90
53599;DHT22;39485;45.702;11.364;2022-10-04T23:12:39;16.40;99.90
53599;DHT22;39485;45.702;11.364;2022-10-04T23:15:09;16.40;99.90
53599;DHT22;39485;45.702;11.364;2022-10-04T23:17:35;16.30;99.90
53599;DHT22;39485;45.702;11.364;2022-10-04T23:20:09;16.30;99.90
53599;DHT22;39485;45.702;11.364;2022-10-04T23:22:36;16.30;99.90
53599;DHT22;39485;45.702;11.364;2022-10-04T23:25:05;16.30;99.90
53599;DHT22;39485;45.702;11.364;2022-10-04T23:27:36;16.20;99.90
53599;DHT22;39485;45.702;11.364;2022-10-04T23:30:02;16.20;99.90
53599;DHT22;39485;45.702;11.364;2022-10-04T23:32:28;16.20;99.90
53599;DHT22;39485;45.702;11.364;2022-10-04T23:34:55;16.10;99.90
53599;DHT22;39485;45.702;11.364;2022-10-04T23:37:21;16.10;99.90
53599;DHT22;39485;45.702;11.364;2022-10-04T23:39:48;16.00;99.90
53599;DHT22;39485;45.702;11.364;2022-10-04T23:44:48;15.80;99.90
53599;DHT22;39485;45.702;11.364;2022-10-04T23:47:15;15.80;99.90
53599;DHT22;39485;45.702;11.364;2022-10-04T23:49:41;15.70;99.90
53599;DHT22;39485;45.702;11.364;2022-10-04T23:52:08;15.70;99.90
53599;DHT22;39485;45.702;11.364;2022-10-04T23:54:37;15.70;99.90
53599;DHT22;39485;45.702;11.364;2022-10-04T23:57:02;15.60;99.90
53599;DHT22;39485;45.702;11.364;2022-10-04T23:59:28;15.60;99.90
